createdAt,value
2022-12-01T00:01:19.619Z,5.12
2022-12-01T00:03:47.573Z,5.04
2022-12-01T00:06:20.219Z,4.87
2022-12-01T00:08:53.021Z,4.92
2022-12-01T00:11:20.800Z,4.92
2022-12-01T00:13:48.826Z,4.91
2022-12-01T00:16:22.131Z,4.79
2022-12-01T00:18:51.724Z,4.79
2022-12-01T00:21:21.705Z,4.61
2022-12-01T00:23:51.687Z,4.26
2022-12-01T00:26:20.742Z,4.11
2022-12-01T00:28:49.837Z,4.10
2022-12-01T00:31:17.739Z,3.93
2022-12-01T00:33:45.908Z,4.26
2022-12-01T00:36:13.898Z,4.34
2022-12-01T00:38:41.629Z,4.39
2022-12-01T00:41:09.541Z,4.46
2022-12-01T00:43:37.283Z,4.08
2022-12-01T00:46:05.466Z,4.32
2022-12-01T00:48:33.738Z,4.05
2022-12-01T00:51:01.613Z,4.22
2022-12-01T00:53:29.265Z,4.08
2022-12-01T00:55:57.329Z,4.26
2022-12-01T00:58:25.108Z,4.27
2022-12-01T01:01:00.524Z,4.02
2022-12-01T01:03:29.228Z,3.67
2022-12-01T01:06:02.836Z,3.96
2022-12-01T01:08:30.908Z,3.91
2022-12-01T01:11:00.033Z,3.64
2022-12-01T01:13:27.767Z,3.45
2022-12-01T01:16:16.177Z,3.47
2022-12-01T01:18:46.151Z,3.50
2022-12-01T01:21:16.312Z,3.51
2022-12-01T01:23:44.072Z,3.26
2022-12-01T01:26:24.337Z,3.15
2022-12-01T01:28:53.222Z,3.51
2022-12-01T01:31:23.145Z,3.18
2022-12-01T01:33:51.277Z,3.38
2022-12-01T01:36:19.799Z,3.25
2022-12-01T01:38:48.393Z,3.17
2022-12-01T01:41:16.069Z,3.18
2022-12-01T01:43:46.711Z,3.07
2022-12-01T01:46:20.513Z,3.18
2022-12-01T01:48:53.715Z,3.01
2022-12-01T01:51:32.596Z,3.12
2022-12-01T01:54:04.385Z,3.02
2022-12-01T01:56:32.342Z,3.16
2022-12-01T01:59:00.997Z,3.20
2022-12-01T02:01:28.933Z,3.12
2022-12-01T02:03:57.059Z,3.05
2022-12-01T02:06:24.689Z,3.05
2022-12-01T02:08:52.256Z,3.13
2022-12-01T02:11:36.543Z,3.14
2022-12-01T02:14:37.198Z,3.05
2022-12-01T02:17:21.807Z,3.20
2022-12-01T02:19:55.905Z,3.03
2022-12-01T02:22:54.775Z,2.95
2022-12-01T02:25:37.555Z,3.00
2022-12-01T02:28:16.189Z,2.99
2022-12-01T02:31:01.108Z,2.97
2022-12-01T02:33:34.742Z,3.15
2022-12-01T02:36:15.630Z,2.97
2022-12-01T02:38:52.361Z,3.05
2022-12-01T02:41:22.336Z,2.96
2022-12-01T02:43:59.218Z,2.93
2022-12-01T02:46:37.504Z,2.91
2022-12-01T02:49:14.273Z,2.89
2022-12-01T02:51:43.348Z,2.96
2022-12-01T02:54:12.876Z,2.90
2022-12-01T02:56:40.575Z,3.00
2022-12-01T02:59:13.221Z,2.71
2022-12-01T03:01:59.451Z,2.87
2022-12-01T03:04:45.927Z,2.78
2022-12-01T03:07:35.011Z,2.65
2022-12-01T03:10:12.274Z,2.68
2022-12-01T03:13:11.329Z,2.81
2022-12-01T03:15:50.458Z,2.83
2022-12-01T03:18:30.946Z,2.72
2022-12-01T03:21:11.632Z,2.54
2022-12-01T03:23:44.221Z,2.49
2022-12-01T03:26:15.596Z,2.48
2022-12-01T03:28:46.876Z,2.38
2022-12-01T03:31:20.952Z,2.34
2022-12-01T03:34:04.628Z,2.54
2022-12-01T03:36:51.268Z,2.42
2022-12-01T03:39:23.829Z,2.29
2022-12-01T03:42:02.000Z,2.51
2022-12-01T03:44:34.357Z,2.59
2022-12-01T03:47:04.200Z,2.46
2022-12-01T03:49:32.695Z,2.41
2022-12-01T03:52:09.646Z,2.44
2022-12-01T03:55:00.212Z,2.41
2022-12-01T03:57:41.315Z,2.30
2022-12-01T04:00:10.130Z,2.25
2022-12-01T04:02:40.634Z,2.34
2022-12-01T04:05:08.923Z,2.37
2022-12-01T04:07:37.849Z,2.41
2022-12-01T04:10:06.243Z,2.44
2022-12-01T04:12:34.259Z,2.49
2022-12-01T04:15:05.478Z,2.47
2022-12-01T04:17:33.088Z,2.65
2022-12-01T04:20:01.033Z,2.51
2022-12-01T04:22:28.664Z,2.36
2022-12-01T04:24:56.259Z,2.40
2022-12-01T04:27:24.180Z,2.31
2022-12-01T04:29:52.056Z,2.34
2022-12-01T04:32:20.021Z,2.50
2022-12-01T04:34:47.978Z,2.62
2022-12-01T04:37:15.585Z,2.50
2022-12-01T04:39:43.150Z,2.40
2022-12-01T04:42:11.059Z,2.40
2022-12-01T04:44:38.741Z,2.17
2022-12-01T04:47:06.757Z,2.40
2022-12-01T04:49:34.746Z,2.30
2022-12-01T04:52:02.412Z,2.07
2022-12-01T04:54:30.022Z,1.90
2022-12-01T04:56:57.911Z,2.10
2022-12-01T04:59:25.554Z,2.15
2022-12-01T05:01:53.136Z,2.11
2022-12-01T05:04:21.258Z,2.11
2022-12-01T05:06:48.925Z,2.15
2022-12-01T05:09:17.751Z,2.08
2022-12-01T05:11:46.105Z,1.93
2022-12-01T05:14:13.741Z,1.85
2022-12-01T05:16:41.469Z,1.69
2022-12-01T05:19:09.468Z,1.78
2022-12-01T05:21:37.071Z,1.84
2022-12-01T05:24:05.634Z,1.85
2022-12-01T05:26:33.581Z,1.85
2022-12-01T05:29:01.799Z,1.96
2022-12-01T05:31:29.815Z,1.86
2022-12-01T05:33:57.826Z,1.72
2022-12-01T05:36:25.432Z,1.53
2022-12-01T05:38:53.334Z,1.40
2022-12-01T05:41:21.820Z,1.43
2022-12-01T05:43:49.417Z,1.51
2022-12-01T05:46:19.480Z,1.40
2022-12-01T05:48:47.579Z,1.41
2022-12-01T05:51:16.311Z,1.34
2022-12-01T05:53:44.392Z,1.34
2022-12-01T05:56:12.551Z,1.34
2022-12-01T05:58:40.151Z,1.41
2022-12-01T06:01:08.064Z,1.34
2022-12-01T06:03:35.982Z,1.41
2022-12-01T06:06:03.716Z,1.54
2022-12-01T06:08:31.428Z,1.52
2022-12-01T06:10:59.801Z,1.40
2022-12-01T06:13:27.449Z,1.54
2022-12-01T06:16:03.195Z,1.45
2022-12-01T06:18:33.205Z,1.50
2022-12-01T06:21:01.162Z,1.47
2022-12-01T06:23:30.527Z,1.25
2022-12-01T06:25:58.934Z,1.39
2022-12-01T06:28:26.664Z,1.34
2022-12-01T06:30:59.307Z,1.35
2022-12-01T06:33:31.195Z,1.46
2022-12-01T06:36:04.207Z,1.40
2022-12-01T06:38:36.849Z,1.38
2022-12-01T06:41:05.150Z,1.31
2022-12-01T06:43:35.956Z,1.29
2022-12-01T06:46:06.765Z,1.34
2022-12-01T06:48:34.802Z,1.49
2022-12-01T06:51:02.809Z,1.46
2022-12-01T06:53:30.504Z,1.71
2022-12-01T06:56:02.754Z,1.80
2022-12-01T06:58:30.802Z,1.84
2022-12-01T07:00:59.394Z,1.79
2022-12-01T07:03:27.519Z,2.04
2022-12-01T07:05:59.647Z,2.02
2022-12-01T07:08:32.023Z,2.00
2022-12-01T07:11:05.224Z,1.92
2022-12-01T07:13:34.158Z,2.06
2022-12-01T07:16:02.336Z,2.04
2022-12-01T07:18:30.707Z,1.93
2022-12-01T07:21:03.224Z,1.98
2022-12-01T07:23:31.174Z,2.14
2022-12-01T07:26:18.284Z,2.42
2022-12-01T07:28:46.130Z,2.47
2022-12-01T07:31:17.090Z,2.68
2022-12-01T07:33:45.006Z,2.69
2022-12-01T07:36:13.327Z,2.82
2022-12-01T07:38:41.423Z,3.07
2022-12-01T07:41:17.202Z,3.20
2022-12-01T07:43:45.748Z,3.24
2022-12-01T07:46:22.815Z,3.46
2022-12-01T07:48:54.761Z,3.52
2022-12-01T07:51:23.850Z,3.73
2022-12-01T07:53:52.795Z,3.90
2022-12-01T07:56:21.773Z,4.06
2022-12-01T07:58:49.628Z,4.15
2022-12-01T08:01:19.989Z,4.04
2022-12-01T08:03:49.272Z,4.03
2022-12-01T08:06:18.166Z,4.09
2022-12-01T08:08:46.072Z,4.29
2022-12-01T08:11:20.197Z,4.40
2022-12-01T08:13:48.107Z,4.59
2022-12-01T08:16:19.034Z,4.83
2022-12-01T08:18:47.036Z,5.04
2022-12-01T08:21:19.754Z,5.13
2022-12-01T08:23:47.847Z,5.06
2022-12-01T08:26:17.894Z,5.21
2022-12-01T08:28:46.312Z,5.34
2022-12-01T08:31:16.355Z,5.39
2022-12-01T08:33:44.398Z,5.58
2022-12-01T08:36:11.959Z,5.79
2022-12-01T08:38:45.918Z,5.61
2022-12-01T08:41:14.304Z,5.24
2022-12-01T08:43:57.935Z,5.86
2022-12-01T08:46:33.253Z,6.09
2022-12-01T08:49:02.328Z,6.02
2022-12-01T08:51:30.447Z,6.08
2022-12-01T08:53:59.095Z,6.09
2022-12-01T08:56:33.568Z,6.31
2022-12-01T08:59:01.805Z,6.18
2022-12-01T09:01:29.800Z,6.43
2022-12-01T09:03:58.210Z,6.51
2022-12-01T09:06:25.770Z,6.50
2022-12-01T09:08:53.667Z,6.48
2022-12-01T09:11:21.460Z,6.66
2022-12-01T09:13:54.398Z,6.82
2022-12-01T09:16:22.762Z,7.02
2022-12-01T09:18:50.782Z,7.00
2022-12-01T09:21:22.004Z,6.99
2022-12-01T09:23:51.580Z,7.07
2022-12-01T09:26:19.986Z,7.22
2022-12-01T09:28:49.912Z,7.26
2022-12-01T09:31:18.538Z,7.45
2022-12-01T09:33:46.647Z,7.26
2022-12-01T09:36:15.474Z,7.57
2022-12-01T09:38:44.048Z,7.53
2022-12-01T09:41:19.485Z,7.42
2022-12-01T09:43:56.598Z,7.54
2022-12-01T09:46:35.564Z,7.85
2022-12-01T09:49:06.482Z,7.76
2022-12-01T09:51:34.751Z,7.59
2022-12-01T09:54:02.946Z,7.74
2022-12-01T09:56:42.350Z,7.81
2022-12-01T09:59:18.048Z,7.78
2022-12-01T10:01:48.891Z,7.68
2022-12-01T10:04:38.566Z,7.94
2022-12-01T10:07:22.768Z,8.06
2022-12-01T10:09:59.470Z,8.35
2022-12-01T10:12:30.706Z,8.42
2022-12-01T10:15:08.139Z,8.24
2022-12-01T10:17:47.995Z,8.30
2022-12-01T10:20:43.823Z,8.36
2022-12-01T10:23:41.557Z,8.27
2022-12-01T10:26:12.364Z,8.43
2022-12-01T10:28:45.680Z,8.74
2022-12-01T10:31:43.000Z,8.72
2022-12-01T10:34:30.198Z,8.51
2022-12-01T10:36:58.333Z,8.69
2022-12-01T10:39:33.925Z,9.28
2022-12-01T10:42:29.133Z,8.69
2022-12-01T10:44:57.356Z,8.95
2022-12-01T10:47:26.028Z,8.96
2022-12-01T10:49:53.769Z,9.33
2022-12-01T10:52:39.051Z,9.57
2022-12-01T10:55:26.791Z,9.50
2022-12-01T10:57:56.298Z,9.28
2022-12-01T11:00:58.570Z,9.64
2022-12-01T11:03:23.962Z,9.71
2022-12-01T11:05:54.982Z,9.55
2022-12-01T11:08:25.166Z,9.07
2022-12-01T11:10:53.226Z,9.26
2022-12-01T11:13:29.542Z,9.39
2022-12-01T11:16:02.917Z,9.52
2022-12-01T11:18:35.963Z,9.97
2022-12-01T11:21:12.290Z,9.79
2022-12-01T11:23:46.317Z,9.85
2022-12-01T11:26:21.056Z,9.40
2022-12-01T11:28:57.211Z,9.83
2022-12-01T11:31:44.868Z,9.76
2022-12-01T11:34:19.800Z,10.32
2022-12-01T11:36:59.236Z,10.65
2022-12-01T11:39:39.735Z,11.16
2022-12-01T11:42:23.404Z,10.85
2022-12-01T11:45:05.504Z,11.25
2022-12-01T11:47:33.508Z,11.92
2022-12-01T11:50:16.785Z,11.98
2022-12-01T11:52:46.894Z,12.58
2022-12-01T11:55:14.673Z,13.16
2022-12-01T11:57:49.460Z,12.22
2022-12-01T12:00:18.019Z,12.55
2022-12-01T12:03:12.959Z,12.50
2022-12-01T12:06:39.539Z,13.29
2022-12-01T12:09:27.281Z,12.56
2022-12-01T12:12:45.874Z,12.98
2022-12-01T12:15:25.993Z,11.62
2022-12-01T12:18:18.912Z,12.05
2022-12-01T12:21:22.395Z,11.51
2022-12-01T12:24:01.609Z,11.33
2022-12-01T12:26:32.635Z,11.33
2022-12-01T12:29:24.203Z,11.51
2022-12-01T12:31:55.011Z,11.37
2022-12-01T12:34:52.591Z,10.92
2022-12-01T12:37:39.184Z,10.63
2022-12-01T12:40:40.902Z,11.15
2022-12-01T12:43:40.607Z,11.37
2022-12-01T12:46:12.101Z,11.30
2022-12-01T12:49:21.016Z,10.85
2022-12-01T12:52:09.039Z,10.27
2022-12-01T12:54:54.878Z,10.80
2022-12-01T12:57:40.647Z,10.23
2022-12-01T13:00:21.982Z,10.17
2022-12-01T13:02:56.892Z,10.14
2022-12-01T13:05:33.051Z,9.69
2022-12-01T13:08:06.488Z,9.77
2022-12-01T13:10:46.931Z,9.39
2022-12-01T13:13:36.523Z,9.56
2022-12-01T13:16:07.102Z,9.45
2022-12-01T13:18:56.238Z,9.24
2022-12-01T13:21:24.272Z,9.40
2022-12-01T13:23:52.547Z,9.07
2022-12-01T13:26:21.307Z,9.31
2022-12-01T13:28:51.888Z,9.75
2022-12-01T13:31:20.921Z,10.56
2022-12-01T13:34:00.875Z,10.86
2022-12-01T13:36:46.216Z,11.00
2022-12-01T13:39:26.793Z,10.37
2022-12-01T13:42:02.561Z,10.74
2022-12-01T13:44:42.203Z,10.51
2022-12-01T13:47:09.678Z,10.35
2022-12-01T13:49:41.928Z,10.40
2022-12-01T13:52:15.755Z,10.04
2022-12-01T13:55:02.118Z,10.48
2022-12-01T13:57:32.564Z,10.57
2022-12-01T14:00:00.365Z,10.02
2022-12-01T14:02:34.002Z,9.43
2022-12-01T14:05:39.506Z,9.42
2022-12-01T14:08:37.579Z,9.16
2022-12-01T14:11:25.911Z,8.57
2022-12-01T14:14:01.899Z,8.60
2022-12-01T14:16:49.258Z,8.35
2022-12-01T14:19:47.189Z,8.30
2022-12-01T14:22:44.289Z,8.26
2022-12-01T14:25:24.982Z,8.00
2022-12-01T14:27:56.417Z,7.91
2022-12-01T14:30:39.207Z,7.80
2022-12-01T14:33:45.836Z,7.91
2022-12-01T14:36:22.627Z,7.66
2022-12-01T14:38:53.716Z,7.73
2022-12-01T14:41:27.870Z,7.54
2022-12-01T14:44:12.185Z,7.43
2022-12-01T14:47:12.025Z,7.40
2022-12-01T14:50:03.394Z,7.32
2022-12-01T14:52:35.522Z,7.28
2022-12-01T14:55:07.617Z,7.28
2022-12-01T14:57:41.330Z,7.23
2022-12-01T15:00:17.848Z,7.20
2022-12-01T15:03:05.052Z,7.07
2022-12-01T15:05:41.561Z,7.03
2022-12-01T15:08:40.177Z,6.96
2022-12-01T15:11:11.021Z,6.83
2022-12-01T15:13:50.697Z,6.66
2022-12-01T15:16:25.861Z,6.60
2022-12-01T15:18:53.868Z,6.52
2022-12-01T15:21:32.084Z,6.54
2022-12-01T15:24:05.809Z,6.54
2022-12-01T15:26:36.639Z,6.52
2022-12-01T15:29:22.735Z,6.35
2022-12-01T15:31:53.200Z,6.32
2022-12-01T15:34:25.759Z,6.39
2022-12-01T15:36:55.864Z,6.32
2022-12-01T15:39:34.557Z,6.15
2022-12-01T15:42:04.301Z,6.07
2022-12-01T15:44:34.674Z,6.03
2022-12-01T15:47:31.327Z,5.93
2022-12-01T15:49:59.390Z,5.82
2022-12-01T15:52:27.279Z,5.76
2022-12-01T15:54:55.934Z,5.69
2022-12-01T15:57:24.326Z,5.53
2022-12-01T15:59:55.151Z,5.45
2022-12-01T16:02:27.386Z,5.66
2022-12-01T16:05:18.159Z,5.48
2022-12-01T16:10:36.369Z,5.41
2022-12-01T16:13:36.163Z,5.32
2022-12-01T16:16:45.875Z,5.19
2022-12-01T16:19:16.699Z,5.05
2022-12-01T16:21:50.769Z,5.03
2022-12-01T16:24:32.574Z,4.98
2022-12-01T16:27:03.538Z,4.92
2022-12-01T16:29:35.122Z,4.94
2022-12-01T16:32:20.211Z,5.02
2022-12-01T16:34:52.514Z,4.91
2022-12-01T16:37:20.975Z,4.92
2022-12-01T16:39:49.149Z,4.91
2022-12-01T16:42:18.574Z,4.87
2022-12-01T16:44:48.080Z,4.79
2022-12-01T16:47:21.394Z,4.87
2022-12-01T16:49:50.054Z,4.91
2022-12-01T16:55:19.077Z,4.83
2022-12-01T16:57:47.202Z,4.78
2022-12-01T17:00:15.647Z,4.81
2022-12-01T17:02:43.458Z,4.79
2022-12-01T17:05:11.816Z,4.70
2022-12-01T17:07:39.821Z,4.73
2022-12-01T17:10:08.391Z,4.67
2022-12-01T17:12:35.956Z,4.65
2022-12-01T17:15:04.475Z,4.62
2022-12-01T17:17:32.057Z,4.54
2022-12-01T17:19:59.706Z,4.59
2022-12-01T17:22:27.934Z,4.67
2022-12-01T17:24:55.868Z,4.63
2022-12-01T17:27:23.719Z,4.55
2022-12-01T17:29:51.962Z,4.50
2022-12-01T17:32:19.862Z,4.45
2022-12-01T17:34:47.871Z,4.42
2022-12-01T17:37:20.871Z,4.42
2022-12-01T17:39:50.008Z,4.37
2022-12-01T17:42:17.929Z,4.29
2022-12-01T17:44:46.980Z,4.32
2022-12-01T17:47:15.351Z,4.34
2022-12-01T17:49:43.356Z,4.32
2022-12-01T17:52:11.059Z,4.28
2022-12-01T17:54:38.764Z,4.27
2022-12-01T17:57:07.287Z,4.33
2022-12-01T17:59:36.150Z,4.24
2022-12-01T18:02:04.692Z,4.28
2022-12-01T18:04:33.442Z,4.27
2022-12-01T18:07:03.423Z,4.20
2022-12-01T18:09:31.323Z,4.21
2022-12-01T18:12:00.367Z,4.24
2022-12-01T18:14:30.101Z,4.26
2022-12-01T18:16:57.847Z,4.25
2022-12-01T18:19:26.053Z,4.29
2022-12-01T18:21:53.741Z,4.36
2022-12-01T18:24:21.961Z,4.35
2022-12-01T18:26:50.535Z,4.36
2022-12-01T18:29:19.666Z,4.41
2022-12-01T18:31:50.395Z,4.43
2022-12-01T18:34:21.510Z,4.44
2022-12-01T18:36:50.947Z,4.43
2022-12-01T18:39:19.193Z,4.44
2022-12-01T18:41:47.767Z,4.55
2022-12-01T18:44:15.689Z,4.52
2022-12-01T18:46:44.042Z,4.55
2022-12-01T18:49:11.976Z,4.50
2022-12-01T18:51:40.416Z,4.52
2022-12-01T18:54:14.305Z,4.46
2022-12-01T18:56:42.457Z,4.47
2022-12-01T18:59:12.399Z,4.61
2022-12-01T19:01:43.920Z,4.50
2022-12-01T19:04:14.537Z,4.48
2022-12-01T19:06:44.083Z,4.52
2022-12-01T19:09:13.859Z,4.49
2022-12-01T19:11:42.069Z,4.47
2022-12-01T19:14:18.598Z,4.51
2022-12-01T19:16:47.057Z,4.54
2022-12-01T19:19:15.262Z,4.55
2022-12-01T19:21:43.511Z,4.42
2022-12-01T19:24:13.198Z,4.41
2022-12-01T19:26:41.862Z,4.43
2022-12-01T19:29:11.213Z,4.47
2022-12-01T19:31:39.973Z,4.47
2022-12-01T19:34:08.013Z,4.36
2022-12-01T19:36:35.800Z,4.37
2022-12-01T19:39:07.490Z,4.40
2022-12-01T19:41:38.846Z,4.48
2022-12-01T19:44:06.873Z,4.47
2022-12-01T19:46:34.809Z,4.47
2022-12-01T19:49:03.539Z,4.42
2022-12-01T19:51:34.775Z,4.43
2022-12-01T19:54:04.313Z,4.45
2022-12-01T19:56:32.314Z,4.41
2022-12-01T19:59:00.422Z,4.47
2022-12-01T20:01:28.907Z,4.35
2022-12-01T20:03:57.360Z,4.37
2022-12-01T20:06:27.197Z,4.40
2022-12-01T20:08:56.740Z,4.31
2022-12-01T20:11:25.240Z,4.33
2022-12-01T20:13:53.140Z,4.28
2022-12-01T20:16:24.237Z,4.15
2022-12-01T20:18:53.392Z,4.05
2022-12-01T20:21:22.820Z,4.11
2022-12-01T20:24:01.172Z,4.01
2022-12-01T20:26:38.250Z,4.09
2022-12-01T20:29:09.415Z,4.00
2022-12-01T20:31:38.301Z,3.83
2022-12-01T20:34:24.836Z,3.94
2022-12-01T20:36:53.585Z,3.92
2022-12-01T20:39:21.949Z,3.79
2022-12-01T20:41:50.294Z,3.82
2022-12-01T20:44:19.285Z,3.69
2022-12-01T20:46:47.188Z,3.65
2022-12-01T20:49:16.836Z,3.64
2022-12-01T20:51:46.031Z,3.62
2022-12-01T20:54:31.705Z,3.56
2022-12-01T20:57:00.012Z,3.40
2022-12-01T20:59:28.750Z,3.50
2022-12-01T21:01:56.842Z,3.49
2022-12-01T21:04:25.212Z,3.31
2022-12-01T21:06:55.984Z,3.40
2022-12-01T21:09:24.471Z,3.33
2022-12-01T21:11:52.464Z,3.34
2022-12-01T21:14:30.382Z,3.27
2022-12-01T21:17:02.497Z,3.32
2022-12-01T21:19:43.971Z,3.32
2022-12-01T21:22:12.729Z,3.37
2022-12-01T21:24:43.766Z,3.39
2022-12-01T21:27:14.177Z,3.32
2022-12-01T21:29:45.175Z,3.48
2022-12-01T21:32:15.079Z,3.36
2022-12-01T21:34:45.953Z,3.44
2022-12-01T21:37:24.053Z,3.50
2022-12-01T21:39:52.979Z,3.49
2022-12-01T21:42:25.315Z,3.46
2022-12-01T21:44:53.232Z,3.48
2022-12-01T21:47:26.032Z,3.59
2022-12-01T21:49:56.452Z,3.66
2022-12-01T21:52:40.672Z,3.64
2022-12-01T21:55:14.474Z,3.72
2022-12-01T21:57:52.066Z,3.63
2022-12-01T22:00:33.284Z,3.63
2022-12-01T22:03:30.592Z,3.72
2022-12-01T22:06:29.637Z,3.75
2022-12-01T22:09:00.610Z,3.70
2022-12-01T22:11:29.673Z,3.76
2022-12-01T22:14:14.726Z,3.90
2022-12-01T22:16:44.869Z,3.98
2022-12-01T22:19:15.538Z,3.93
2022-12-01T22:21:51.549Z,3.78
2022-12-01T22:24:22.562Z,3.72
2022-12-01T22:27:03.368Z,3.83
2022-12-01T22:29:36.134Z,3.74
2022-12-01T22:32:07.124Z,3.79
2022-12-01T22:34:34.762Z,3.67
2022-12-01T22:37:34.590Z,3.72
2022-12-01T22:40:32.727Z,3.73
2022-12-01T22:43:22.552Z,3.68
2022-12-01T22:46:00.311Z,3.72
2022-12-01T22:48:32.037Z,3.63
2022-12-01T22:51:34.053Z,3.67
2022-12-01T22:54:14.136Z,3.79
2022-12-01T22:56:44.913Z,3.69
2022-12-01T22:59:27.958Z,3.75
2022-12-01T23:01:57.692Z,3.66
2022-12-01T23:04:32.414Z,3.88
2022-12-01T23:07:20.549Z,3.68
2022-12-01T23:09:48.254Z,3.64
2022-12-01T23:12:23.873Z,3.71
2022-12-01T23:14:53.799Z,3.76
2022-12-01T23:17:28.340Z,3.81
2022-12-01T23:20:11.189Z,3.98
2022-12-01T23:22:39.334Z,3.76
2022-12-01T23:25:15.625Z,3.78
2022-12-01T23:27:46.108Z,3.82
2022-12-01T23:30:15.799Z,3.70
2022-12-01T23:32:44.337Z,3.72
2022-12-01T23:35:17.217Z,3.78
2022-12-01T23:37:47.622Z,3.60
2022-12-01T23:40:23.436Z,3.57
2022-12-01T23:42:51.369Z,3.54
2022-12-01T23:45:26.681Z,3.51
2022-12-01T23:47:55.456Z,3.67
2022-12-01T23:50:25.346Z,3.78
2022-12-01T23:52:54.017Z,3.69
2022-12-01T23:55:31.506Z,3.49
2022-12-01T23:57:59.192Z,3.88
